createdAt,value
2023-05-21T00:00:12.897Z,8.27
2023-05-21T00:02:41.513Z,8.90
2023-05-21T00:05:14.368Z,9.25
2023-05-21T00:07:43.348Z,8.57
2023-05-21T00:10:13.358Z,8.30
2023-05-21T00:12:42.575Z,8.10
2023-05-21T00:15:11.785Z,8.98
2023-05-21T00:17:40.603Z,9.10
2023-05-21T00:20:09.988Z,8.98
2023-05-21T00:22:38.434Z,8.82
2023-05-21T00:25:07.672Z,8.25
2023-05-21T00:27:37.480Z,9.32
2023-05-21T00:30:07.382Z,8.82
2023-05-21T00:32:36.743Z,9.07
2023-05-21T00:35:06.111Z,9.50
2023-05-21T00:37:35.032Z,9.50
2023-05-21T00:40:04.803Z,9.48
2023-05-21T00:42:33.699Z,9.48
2023-05-21T00:45:04.342Z,8.75
2023-05-21T00:47:33.209Z,8.75
2023-05-21T00:50:03.122Z,9.90
2023-05-21T00:52:32.071Z,9.35
2023-05-21T00:55:00.545Z,9.80
2023-05-21T00:57:29.190Z,9.13
2023-05-21T00:59:57.752Z,8.95
2023-05-21T01:02:27.845Z,9.15
2023-05-21T01:04:56.630Z,9.75
2023-05-21T01:07:25.315Z,8.82
2023-05-21T01:09:55.124Z,9.45
2023-05-21T01:12:24.950Z,8.68
2023-05-21T01:14:54.062Z,9.70
2023-05-21T01:17:24.326Z,9.00
2023-05-21T01:19:54.890Z,8.27
2023-05-21T01:22:24.914Z,8.60
2023-05-21T01:24:56.302Z,9.10
2023-05-21T01:27:24.844Z,9.38
2023-05-21T01:29:53.345Z,8.90
2023-05-21T01:32:30.143Z,9.02
2023-05-21T01:35:05.677Z,9.40
2023-05-21T01:40:12.023Z,9.25
2023-05-21T01:42:43.781Z,9.20
2023-05-21T01:45:13.464Z,9.25
2023-05-21T01:47:42.853Z,9.30
2023-05-21T01:50:12.196Z,9.07
2023-05-21T01:52:40.597Z,9.40
2023-05-21T01:55:11.093Z,9.40
2023-05-21T01:57:39.794Z,9.25
2023-05-21T02:00:10.381Z,9.40
2023-05-21T02:02:43.966Z,11.43
2023-05-21T02:05:12.721Z,10.73
2023-05-21T02:07:41.569Z,10.68
2023-05-21T02:10:12.537Z,10.60
2023-05-21T02:12:40.976Z,11.23
2023-05-21T02:15:10.851Z,12.30
2023-05-21T02:17:39.317Z,10.10
2023-05-21T02:20:13.776Z,10.80
2023-05-21T02:22:43.812Z,10.32
2023-05-21T02:25:15.803Z,10.02
2023-05-21T02:27:46.773Z,10.93
2023-05-21T02:30:16.591Z,11.18
2023-05-21T02:32:45.393Z,10.52
2023-05-21T02:35:14.423Z,11.45
2023-05-21T02:37:43.856Z,11.68
2023-05-21T02:40:14.569Z,10.75
2023-05-21T02:42:43.105Z,10.55
2023-05-21T02:45:15.775Z,11.00
2023-05-21T02:47:46.363Z,10.55
2023-05-21T02:50:17.206Z,10.80
2023-05-21T02:52:52.281Z,10.40
2023-05-21T02:55:22.831Z,10.57
2023-05-21T02:57:52.321Z,11.13
2023-05-21T03:00:20.960Z,10.60
2023-05-21T03:02:49.499Z,10.73
2023-05-21T03:05:18.117Z,11.68
2023-05-21T03:07:47.560Z,10.98
2023-05-21T03:10:16.814Z,12.35
2023-05-21T03:12:47.164Z,11.00
2023-05-21T03:15:16.022Z,10.80
2023-05-21T03:17:44.710Z,10.70
2023-05-21T03:20:16.464Z,11.05
2023-05-21T03:22:46.070Z,11.75
2023-05-21T03:25:14.617Z,10.98
2023-05-21T03:27:43.176Z,10.98
2023-05-21T03:30:28.558Z,11.07
2023-05-21T03:33:17.379Z,11.68
2023-05-21T03:35:46.541Z,10.50
2023-05-21T03:38:15.010Z,11.13
2023-05-21T03:40:43.761Z,10.80
2023-05-21T03:43:12.219Z,10.75
2023-05-21T03:45:44.312Z,11.77
2023-05-21T03:48:42.224Z,10.70
2023-05-21T03:51:13.154Z,11.52
2023-05-21T03:53:41.627Z,11.40
2023-05-21T03:56:10.067Z,11.77
2023-05-21T03:58:38.669Z,11.68
2023-05-21T04:01:10.633Z,12.30
2023-05-21T04:03:40.728Z,11.15
2023-05-21T04:06:11.924Z,12.63
2023-05-21T04:08:41.343Z,12.18
2023-05-21T04:11:10.532Z,12.73
2023-05-21T04:13:39.732Z,12.32
2023-05-21T04:16:09.793Z,11.88
2023-05-21T04:18:38.816Z,11.45
2023-05-21T04:21:07.454Z,12.05
2023-05-21T04:23:36.777Z,12.10
2023-05-21T04:26:09.613Z,12.13
2023-05-21T04:28:42.107Z,11.93
2023-05-21T04:31:13.762Z,12.15
2023-05-21T04:33:45.823Z,12.13
2023-05-21T04:36:17.088Z,11.88
2023-05-21T04:38:46.308Z,11.43
2023-05-21T04:41:14.784Z,11.18
2023-05-21T04:43:44.190Z,11.27
2023-05-21T04:46:16.113Z,11.45
2023-05-21T04:48:45.049Z,10.93
2023-05-21T04:51:14.978Z,11.00
2023-05-21T04:53:43.476Z,11.77
2023-05-21T04:56:11.967Z,11.70
2023-05-21T04:58:40.536Z,10.63
2023-05-21T05:01:09.086Z,11.15
2023-05-21T05:03:39.015Z,10.85
2023-05-21T05:06:09.133Z,11.23
2023-05-21T05:08:37.779Z,11.32
2023-05-21T05:11:06.221Z,11.45
2023-05-21T05:13:34.998Z,10.48
2023-05-21T05:16:03.651Z,10.75
2023-05-21T05:18:32.194Z,10.07
2023-05-21T05:21:02.921Z,10.73
2023-05-21T05:23:31.388Z,10.90
2023-05-21T05:25:59.992Z,9.63
2023-05-21T05:28:29.200Z,10.68
2023-05-21T05:31:00.139Z,10.10
2023-05-21T05:33:29.655Z,9.57
2023-05-21T05:35:58.194Z,10.55
2023-05-21T05:38:28.154Z,9.70
2023-05-21T05:40:56.676Z,10.02
2023-05-21T05:43:26.309Z,10.20
2023-05-21T05:45:54.818Z,9.88
2023-05-21T05:48:23.303Z,9.80
2023-05-21T05:50:54.784Z,9.55
2023-05-21T05:53:26.426Z,9.73
2023-05-21T05:55:57.205Z,9.32
2023-05-21T05:58:25.931Z,8.65
2023-05-21T06:01:15.079Z,9.02
2023-05-21T06:03:43.936Z,9.00
2023-05-21T06:06:16.941Z,8.77
2023-05-21T06:08:46.196Z,9.05
2023-05-21T06:11:18.985Z,8.40
2023-05-21T06:13:47.524Z,8.18
2023-05-21T06:16:18.504Z,7.40
2023-05-21T06:18:47.161Z,8.02
2023-05-21T06:21:15.867Z,7.47
2023-05-21T06:23:46.848Z,7.63
2023-05-21T06:26:19.010Z,7.10
2023-05-21T06:28:49.102Z,7.43
2023-05-21T06:31:17.622Z,6.95
2023-05-21T06:33:46.792Z,8.13
2023-05-21T06:36:16.225Z,7.55
2023-05-21T06:38:44.796Z,6.72
2023-05-21T06:41:13.344Z,7.20
2023-05-21T06:44:06.367Z,7.55
2023-05-21T06:46:46.881Z,7.68
2023-05-21T06:49:15.491Z,8.00
2023-05-21T06:51:45.127Z,7.40
2023-05-21T06:54:14.852Z,7.25
2023-05-21T06:56:43.788Z,7.22
2023-05-21T06:59:13.620Z,7.35
2023-05-21T07:01:43.886Z,7.38
2023-05-21T07:04:12.470Z,7.68
2023-05-21T07:06:42.529Z,7.32
2023-05-21T07:09:10.946Z,7.60
2023-05-21T07:11:40.118Z,7.50
2023-05-21T07:14:10.878Z,7.30
2023-05-21T07:16:41.324Z,7.38
2023-05-21T07:19:10.108Z,7.10
2023-05-21T07:21:40.917Z,6.88
2023-05-21T07:24:09.766Z,7.85
2023-05-21T07:26:41.384Z,8.10
2023-05-21T07:29:10.236Z,7.90
2023-05-21T07:31:38.692Z,7.40
2023-05-21T07:34:09.662Z,7.93
2023-05-21T07:36:38.134Z,7.60
2023-05-21T07:39:06.708Z,8.60
2023-05-21T07:41:35.402Z,8.93
2023-05-21T07:44:07.880Z,7.68
2023-05-21T07:46:40.835Z,8.63
2023-05-21T07:49:16.499Z,8.48
2023-05-21T07:51:46.362Z,7.60
2023-05-21T07:54:14.850Z,8.85
2023-05-21T07:56:43.466Z,7.50
2023-05-21T07:59:21.138Z,8.10
2023-05-21T08:01:49.870Z,8.40
2023-05-21T08:04:20.080Z,7.85
2023-05-21T08:06:49.532Z,8.60
2023-05-21T08:09:19.292Z,7.82
2023-05-21T08:11:48.332Z,8.05
2023-05-21T08:14:17.467Z,7.90
2023-05-21T08:16:46.179Z,8.50
2023-05-21T08:19:14.998Z,8.52
2023-05-21T08:21:47.591Z,8.43
2023-05-21T08:24:16.899Z,9.20
2023-05-21T08:26:47.508Z,8.10
2023-05-21T08:29:16.257Z,8.38
2023-05-21T08:31:44.792Z,8.27
2023-05-21T08:34:13.248Z,8.20
2023-05-21T08:36:49.980Z,7.50
2023-05-21T08:39:38.733Z,7.40
2023-05-21T08:42:15.853Z,7.70
2023-05-21T08:44:52.865Z,8.20
2023-05-21T08:47:26.962Z,8.52
2023-05-21T08:49:56.945Z,7.63
2023-05-21T08:52:27.642Z,7.40
2023-05-21T08:54:58.973Z,7.82
2023-05-21T08:57:28.252Z,8.02
2023-05-21T08:59:57.979Z,8.48
2023-05-21T09:02:30.914Z,8.00
2023-05-21T09:05:03.405Z,8.32
2023-05-21T09:07:40.549Z,8.27
2023-05-21T09:10:38.261Z,8.35
2023-05-21T09:13:08.096Z,7.88
2023-05-21T09:15:37.458Z,8.32
2023-05-21T09:18:06.534Z,8.02
2023-05-21T09:20:46.288Z,8.23
2023-05-21T09:23:18.709Z,8.35
2023-05-21T09:25:49.164Z,7.65
2023-05-21T09:28:27.628Z,8.20
2023-05-21T09:32:12.165Z,8.50
2023-05-21T09:34:42.398Z,8.65
2023-05-21T09:37:23.545Z,8.75
2023-05-21T09:42:30.892Z,8.68
2023-05-21T09:44:59.439Z,8.90
2023-05-21T09:47:28.189Z,8.00
2023-05-21T09:49:59.108Z,8.10
2023-05-21T09:52:28.256Z,8.25
2023-05-21T09:54:58.232Z,9.20
2023-05-21T09:57:27.213Z,10.55
2023-05-21T09:59:55.914Z,9.80
2023-05-21T10:02:26.663Z,9.60
2023-05-21T10:04:56.960Z,8.90
2023-05-21T10:07:27.593Z,8.60
2023-05-21T10:09:58.393Z,9.05
2023-05-21T10:12:31.570Z,9.32
2023-05-21T10:15:02.162Z,8.88
2023-05-21T10:17:31.477Z,9.07
2023-05-21T10:20:01.550Z,9.25
2023-05-21T10:22:30.437Z,8.30
2023-05-21T10:25:03.211Z,8.77
2023-05-21T10:27:33.306Z,8.50
2023-05-21T10:30:02.720Z,8.23
2023-05-21T10:32:32.710Z,8.32
2023-05-21T10:35:02.264Z,9.10
2023-05-21T10:37:31.561Z,10.00
2023-05-21T10:40:01.658Z,10.38
2023-05-21T10:43:11.823Z,9.27
2023-05-21T10:45:54.082Z,9.93
2023-05-21T10:48:36.574Z,10.90
2023-05-21T10:51:19.544Z,10.25
2023-05-21T10:54:17.512Z,11.40
2023-05-21T10:56:56.038Z,11.43
2023-05-21T10:59:37.489Z,11.05
2023-05-21T11:02:07.846Z,10.55
2023-05-21T11:04:39.873Z,11.32
2023-05-21T11:07:08.738Z,11.00
2023-05-21T11:09:37.231Z,10.48
2023-05-21T11:12:08.012Z,10.38
2023-05-21T11:14:39.921Z,10.43
2023-05-21T11:17:14.385Z,10.13
2023-05-21T11:19:44.119Z,11.13
2023-05-21T11:22:23.196Z,10.73
2023-05-21T11:24:52.587Z,11.13
2023-05-21T11:27:34.461Z,11.30
2023-05-21T11:30:06.358Z,10.40
2023-05-21T11:32:40.153Z,10.90
2023-05-21T11:35:09.294Z,10.63
2023-05-21T11:37:41.462Z,11.63
2023-05-21T11:40:21.600Z,11.50
2023-05-21T11:42:54.321Z,11.15
2023-05-21T11:45:24.586Z,10.85
2023-05-21T11:47:53.562Z,10.88
2023-05-21T11:50:22.196Z,10.05
2023-05-21T11:52:53.411Z,10.15
2023-05-21T11:55:29.334Z,11.18
2023-05-21T11:58:00.046Z,12.13
2023-05-21T12:00:28.535Z,10.60
2023-05-21T12:02:58.895Z,11.90
2023-05-21T12:05:28.037Z,12.23
2023-05-21T12:07:56.723Z,11.40
2023-05-21T12:10:25.358Z,13.15
2023-05-21T12:12:56.311Z,12.15
2023-05-21T12:15:30.305Z,13.27
2023-05-21T12:17:59.247Z,12.75
2023-05-21T12:20:29.019Z,13.30
2023-05-21T12:23:00.864Z,12.80
2023-05-21T12:25:30.414Z,12.38
2023-05-21T12:28:01.330Z,12.25
2023-05-21T12:30:31.680Z,12.00
2023-05-21T12:33:01.953Z,11.23
2023-05-21T12:35:31.623Z,12.32
2023-05-21T12:38:03.223Z,11.07
2023-05-21T12:40:39.940Z,12.40
2023-05-21T12:43:08.858Z,12.80
2023-05-21T12:45:40.140Z,12.10
2023-05-21T12:48:12.550Z,13.45
2023-05-21T12:50:42.156Z,11.65
2023-05-21T12:53:12.893Z,12.85
2023-05-21T12:55:41.886Z,12.02
2023-05-21T12:58:15.926Z,12.60
2023-05-21T13:00:45.973Z,11.82
2023-05-21T13:03:14.615Z,11.43
2023-05-21T13:05:43.131Z,11.20
2023-05-21T13:08:14.021Z,11.98
2023-05-21T13:10:42.677Z,11.65
2023-05-21T13:13:11.110Z,11.02
2023-05-21T13:15:39.622Z,12.57
2023-05-21T13:18:09.861Z,12.88
2023-05-21T13:20:38.943Z,10.90
2023-05-21T13:23:09.821Z,10.65
2023-05-21T13:25:40.007Z,10.93
2023-05-21T13:28:10.344Z,11.07
2023-05-21T13:30:39.610Z,11.13
2023-05-21T13:33:12.067Z,12.45
2023-05-21T13:35:40.789Z,13.20
2023-05-21T13:38:09.229Z,12.82
2023-05-21T13:40:39.051Z,11.80
2023-05-21T13:43:07.793Z,12.68
2023-05-21T13:45:37.573Z,12.15
2023-05-21T13:48:06.947Z,11.80
2023-05-21T13:50:37.109Z,12.80
2023-05-21T13:53:05.807Z,11.82
2023-05-21T13:55:34.678Z,13.65
2023-05-21T13:58:03.962Z,12.07
2023-05-21T14:00:32.737Z,12.15
2023-05-21T14:03:01.548Z,10.82
2023-05-21T14:05:30.293Z,11.80
2023-05-21T14:08:00.166Z,11.90
2023-05-21T14:10:28.868Z,11.68
2023-05-21T14:13:04.207Z,12.57
2023-05-21T14:15:36.906Z,13.73
2023-05-21T14:18:07.951Z,11.23
2023-05-21T14:20:37.542Z,13.43
2023-05-21T14:23:07.363Z,12.55
2023-05-21T14:25:36.167Z,10.70
2023-05-21T14:28:04.979Z,12.10
2023-05-21T14:30:33.678Z,12.27
2023-05-21T14:33:03.159Z,12.27
2023-05-21T14:35:31.619Z,12.05
2023-05-21T14:38:00.059Z,10.90
2023-05-21T14:40:29.879Z,12.10
2023-05-21T14:42:58.580Z,12.38
2023-05-21T14:45:27.357Z,13.07
2023-05-21T14:47:55.774Z,12.27
2023-05-21T14:50:24.207Z,11.93
2023-05-21T14:52:52.589Z,12.20
2023-05-21T14:55:23.512Z,11.73
2023-05-21T14:57:53.272Z,12.10
2023-05-21T15:00:21.779Z,11.13
2023-05-21T15:02:50.322Z,11.32
2023-05-21T15:05:19.094Z,11.95
2023-05-21T15:07:48.220Z,11.02
2023-05-21T15:10:18.569Z,11.40
2023-05-21T15:12:47.479Z,11.10
2023-05-21T15:15:17.794Z,11.15
2023-05-21T15:17:46.418Z,10.93
2023-05-21T15:20:14.902Z,11.00
2023-05-21T15:22:43.435Z,10.75
2023-05-21T15:25:12.167Z,10.80
2023-05-21T15:27:41.099Z,11.55
2023-05-21T15:30:10.231Z,10.52
2023-05-21T15:32:39.979Z,9.88
2023-05-21T15:35:09.176Z,10.45
2023-05-21T15:37:37.853Z,10.98
2023-05-21T15:40:08.714Z,11.38
2023-05-21T15:42:37.151Z,10.75
2023-05-21T15:45:06.364Z,10.75
2023-05-21T15:47:34.787Z,11.02
2023-05-21T15:50:04.799Z,11.65
2023-05-21T15:52:33.210Z,11.95
2023-05-21T15:55:02.147Z,11.27
2023-05-21T15:57:31.246Z,10.68
2023-05-21T16:00:00.049Z,10.70
2023-05-21T16:02:30.625Z,10.77
2023-05-21T16:04:59.584Z,9.90
2023-05-21T16:07:31.451Z,10.50
2023-05-21T16:10:00.040Z,10.73
2023-05-21T16:12:28.633Z,11.55
2023-05-21T16:14:57.040Z,11.35
2023-05-21T16:17:25.609Z,10.82
2023-05-21T16:19:54.195Z,10.48
2023-05-21T16:22:23.732Z,11.65
2023-05-21T16:24:55.783Z,10.73
2023-05-21T16:27:24.914Z,10.95
2023-05-21T16:29:53.291Z,11.35
2023-05-21T16:32:22.064Z,11.57
2023-05-21T16:34:50.779Z,10.95
2023-05-21T16:37:19.378Z,10.85
2023-05-21T16:39:47.846Z,11.65
2023-05-21T16:42:17.807Z,11.70
2023-05-21T16:44:46.273Z,11.15
2023-05-21T16:47:15.167Z,10.80
2023-05-21T16:49:43.552Z,10.18
2023-05-21T16:52:14.927Z,11.18
2023-05-21T16:54:48.506Z,10.93
2023-05-21T16:57:18.270Z,11.00
2023-05-21T16:59:46.660Z,10.55
2023-05-21T17:02:15.326Z,10.63
2023-05-21T17:04:43.762Z,10.93
2023-05-21T17:07:13.376Z,11.07
2023-05-21T17:09:41.756Z,9.85
2023-05-21T17:12:10.344Z,10.95
2023-05-21T17:14:40.956Z,10.93
2023-05-21T17:17:09.528Z,10.95
2023-05-21T17:19:38.697Z,10.93
2023-05-21T17:22:10.301Z,11.48
2023-05-21T17:24:39.134Z,10.27
2023-05-21T17:27:07.497Z,11.02
2023-05-21T17:29:35.907Z,11.63
2023-05-21T17:32:06.437Z,11.85
2023-05-21T17:34:34.901Z,13.20
2023-05-21T17:37:03.333Z,11.40
2023-05-21T17:39:31.857Z,11.25
2023-05-21T17:42:00.880Z,9.98
2023-05-21T17:44:29.339Z,10.93
2023-05-21T17:46:57.810Z,10.30
2023-05-21T17:49:27.567Z,11.30
2023-05-21T17:51:56.146Z,10.90
2023-05-21T17:54:24.848Z,10.90
2023-05-21T17:56:53.626Z,10.70
2023-05-21T17:59:22.209Z,10.93
2023-05-21T18:01:50.715Z,11.20
2023-05-21T18:04:19.501Z,11.35
2023-05-21T18:06:49.600Z,11.00
2023-05-21T18:09:18.591Z,11.68
2023-05-21T18:11:52.954Z,11.77
2023-05-21T18:14:21.464Z,11.90
2023-05-21T18:16:50.180Z,14.88
2023-05-21T18:19:19.941Z,14.25
2023-05-21T18:21:50.122Z,12.98
2023-05-21T18:24:18.597Z,12.60
2023-05-21T18:26:47.045Z,12.75
2023-05-21T18:29:15.744Z,12.07
2023-05-21T18:31:45.184Z,13.55
2023-05-21T18:34:16.717Z,14.55
2023-05-21T18:36:45.521Z,14.98
2023-05-21T18:39:15.709Z,15.15
2023-05-21T18:41:44.732Z,18.00
2023-05-21T18:44:13.403Z,16.77
2023-05-21T18:46:42.197Z,18.08
2023-05-21T18:49:10.786Z,17.33
2023-05-21T18:51:40.197Z,17.42
2023-05-21T18:54:09.865Z,16.38
2023-05-21T18:56:42.858Z,16.85
2023-05-21T18:59:12.370Z,16.67
2023-05-21T19:01:40.861Z,17.90
2023-05-21T19:04:09.524Z,17.08
2023-05-21T19:06:40.566Z,17.77
2023-05-21T19:09:09.025Z,16.55
2023-05-21T19:11:39.573Z,16.75
2023-05-21T19:14:08.007Z,16.45
2023-05-21T19:16:36.480Z,15.20
2023-05-21T19:19:05.874Z,13.18
2023-05-21T19:21:34.508Z,11.60
2023-05-21T19:24:05.439Z,12.48
2023-05-21T19:26:34.349Z,12.23
2023-05-21T19:29:04.114Z,11.82
2023-05-21T19:31:34.778Z,11.45
2023-05-21T19:34:10.445Z,11.20
2023-05-21T19:36:52.022Z,11.07
2023-05-21T19:39:21.955Z,11.27
2023-05-21T19:41:51.554Z,11.00
2023-05-21T19:44:21.338Z,11.07
2023-05-21T19:46:49.884Z,12.43
2023-05-21T19:49:19.906Z,11.15
2023-05-21T19:51:49.610Z,11.02
2023-05-21T19:54:18.411Z,11.98
2023-05-21T19:56:46.808Z,10.95
2023-05-21T19:59:15.334Z,11.63
2023-05-21T20:01:45.918Z,10.73
2023-05-21T20:04:14.833Z,11.43
2023-05-21T20:06:43.424Z,11.50
2023-05-21T20:09:13.280Z,11.18
2023-05-21T20:11:42.167Z,11.43
2023-05-21T20:14:10.680Z,12.00
2023-05-21T20:16:39.513Z,12.32
2023-05-21T20:19:10.751Z,11.30
2023-05-21T20:21:40.484Z,12.13
2023-05-21T20:24:11.333Z,12.60
2023-05-21T20:26:39.920Z,11.80
2023-05-21T20:29:08.891Z,11.95
2023-05-21T20:31:37.847Z,11.68
2023-05-21T20:34:08.778Z,12.45
2023-05-21T20:36:40.261Z,12.68
2023-05-21T20:39:09.357Z,13.43
2023-05-21T20:41:38.753Z,13.38
2023-05-21T20:44:07.937Z,12.95
2023-05-21T20:46:38.139Z,13.52
2023-05-21T20:49:07.039Z,12.00
2023-05-21T20:51:35.439Z,12.82
2023-05-21T20:54:05.693Z,12.23
2023-05-21T20:56:42.300Z,12.70
2023-05-21T20:59:11.804Z,13.02
2023-05-21T21:01:41.361Z,14.43
2023-05-21T21:04:10.388Z,12.77
2023-05-21T21:06:40.454Z,13.50
2023-05-21T21:09:13.517Z,12.90
2023-05-21T21:11:41.916Z,12.02
2023-05-21T21:14:10.372Z,12.55
2023-05-21T21:16:39.077Z,12.35
2023-05-21T21:19:07.991Z,12.43
2023-05-21T21:21:36.500Z,13.93
2023-05-21T21:24:05.640Z,13.20
2023-05-21T21:26:35.395Z,13.75
2023-05-21T21:29:04.039Z,13.25
2023-05-21T21:31:32.574Z,13.45
2023-05-21T21:34:01.341Z,13.82
2023-05-21T21:36:29.729Z,13.23
2023-05-21T21:38:58.285Z,12.23
2023-05-21T21:41:26.806Z,12.73
2023-05-21T21:43:57.019Z,13.70
2023-05-21T21:46:26.147Z,13.25
2023-05-21T21:48:55.185Z,13.68
2023-05-21T21:51:23.966Z,13.98
2023-05-21T21:53:52.468Z,13.55
2023-05-21T21:56:22.236Z,13.02
2023-05-21T21:58:50.678Z,13.55
2023-05-21T22:01:21.277Z,13.05
2023-05-21T22:03:49.917Z,13.82
2023-05-21T22:06:18.370Z,13.82
2023-05-21T22:08:47.057Z,13.45
2023-05-21T22:11:15.654Z,12.95
2023-05-21T22:13:44.272Z,12.68
2023-05-21T22:16:12.864Z,13.27
2023-05-21T22:18:42.931Z,13.70
2023-05-21T22:21:14.148Z,13.77
2023-05-21T22:23:43.047Z,12.75
2023-05-21T22:26:11.498Z,13.40
2023-05-21T22:28:40.100Z,12.40
2023-05-21T22:31:09.053Z,12.30
2023-05-21T22:33:37.652Z,13.77
2023-05-21T22:36:08.273Z,12.98
2023-05-21T22:38:36.728Z,12.20
2023-05-21T22:41:05.491Z,12.80
2023-05-21T22:43:34.934Z,12.43
2023-05-21T22:46:03.557Z,13.65
2023-05-21T22:48:32.510Z,13.65
2023-05-21T22:51:01.969Z,13.60
2023-05-21T22:53:32.455Z,14.50
2023-05-21T22:56:00.993Z,13.68
2023-05-21T22:58:29.433Z,13.48
2023-05-21T23:00:57.987Z,14.32
2023-05-21T23:03:26.698Z,13.65
2023-05-21T23:05:55.224Z,12.77
2023-05-21T23:08:23.611Z,12.73
2023-05-21T23:10:53.681Z,14.20
2023-05-21T23:13:22.306Z,14.48
2023-05-21T23:15:51.327Z,12.88
2023-05-21T23:18:19.878Z,12.65
2023-05-21T23:20:48.366Z,13.40
2023-05-21T23:23:16.982Z,14.05
2023-05-21T23:25:46.678Z,13.70
2023-05-21T23:28:16.672Z,13.35
2023-05-21T23:30:45.170Z,13.52
2023-05-21T23:33:13.784Z,14.20
2023-05-21T23:35:42.558Z,14.07
2023-05-21T23:38:10.955Z,13.48
2023-05-21T23:40:39.546Z,14.80
2023-05-21T23:43:08.195Z,14.27
2023-05-21T23:45:38.248Z,13.73
2023-05-21T23:48:07.989Z,13.73
2023-05-21T23:50:36.671Z,13.25
2023-05-21T23:53:05.456Z,13.68
2023-05-21T23:55:33.870Z,14.05
2023-05-21T23:58:03.798Z,14.15
